sensor_id;sensor_type;location;lat;lon;timestamp;P1;durP1;ratioP1;P2;durP2;ratioP2
65757;SDS011;52495;52.208;5.158;2023-04-15T00:00:24;11.00;;;5.15;;
65757;SDS011;52495;52.208;5.158;2023-04-15T00:02:51;9.27;;;5.53;;
65757;SDS011;52495;52.208;5.158;2023-04-15T00:05:18;10.40;;;4.90;;
65757;SDS011;52495;52.208;5.158;2023-04-15T00:07:45;9.38;;;5.38;;
65757;SDS011;52495;52.208;5.158;2023-04-15T00:10:16;10.95;;;4.40;;
65757;SDS011;52495;52.208;5.158;2023-04-15T00:12:43;7.10;;;4.32;;
65757;SDS011;52495;52.208;5.158;2023-04-15T00:15:10;7.15;;;4.00;;
65757;SDS011;52495;52.208;5.158;2023-04-15T00:17:37;10.52;;;4.97;;
65757;SDS011;52495;52.208;5.158;2023-04-15T00:20:04;9.02;;;4.75;;
65757;SDS011;52495;52.208;5.158;2023-04-15T00:22:32;12.70;;;4.63;;
65757;SDS011;52495;52.208;5.158;2023-04-15T00:24:59;10.43;;;5.07;;
65757;SDS011;52495;52.208;5.158;2023-04-15T00:27:27;9.00;;;4.53;;
65757;SDS011;52495;52.208;5.158;2023-04-15T00:29:54;7.57;;;4.88;;
65757;SDS011;52495;52.208;5.158;2023-04-15T00:32:21;11.20;;;5.10;;
65757;SDS011;52495;52.208;5.158;2023-04-15T00:34:48;9.40;;;5.43;;
65757;SDS011;52495;52.208;5.158;2023-04-15T00:37:15;7.47;;;5.20;;
65757;SDS011;52495;52.208;5.158;2023-04-15T00:39:42;10.07;;;5.45;;
65757;SDS011;52495;52.208;5.158;2023-04-15T00:42:09;10.68;;;4.65;;
65757;SDS011;52495;52.208;5.158;2023-04-15T00:44:37;8.90;;;5.35;;
65757;SDS011;52495;52.208;5.158;2023-04-15T00:47:04;9.32;;;5.07;;
65757;SDS011;52495;52.208;5.158;2023-04-15T00:49:31;9.38;;;5.50;;
65757;SDS011;52495;52.208;5.158;2023-04-15T00:51:58;8.60;;;5.32;;
65757;SDS011;52495;52.208;5.158;2023-04-15T00:54:25;8.77;;;5.05;;
65757;SDS011;52495;52.208;5.158;2023-04-15T00:56:51;9.70;;;5.55;;
65757;SDS011;52495;52.208;5.158;2023-04-15T00:59:18;10.73;;;5.63;;
65757;SDS011;52495;52.208;5.158;2023-04-15T01:01:47;9.27;;;5.30;;
65757;SDS011;52495;52.208;5.158;2023-04-15T01:04:14;8.48;;;5.72;;
65757;SDS011;52495;52.208;5.158;2023-04-15T01:06:41;8.15;;;5.00;;
65757;SDS011;52495;52.208;5.158;2023-04-15T01:09:09;9.57;;;5.22;;
65757;SDS011;52495;52.208;5.158;2023-04-15T01:11:37;10.55;;;5.15;;
65757;SDS011;52495;52.208;5.158;2023-04-15T01:14:07;8.85;;;5.25;;
65757;SDS011;52495;52.208;5.158;2023-04-15T01:16:35;8.30;;;5.40;;
65757;SDS011;52495;52.208;5.158;2023-04-15T01:19:05;12.02;;;5.22;;
65757;SDS011;52495;52.208;5.158;2023-04-15T01:21:36;9.07;;;5.07;;
65757;SDS011;52495;52.208;5.158;2023-04-15T01:24:04;8.48;;;5.13;;
65757;SDS011;52495;52.208;5.158;2023-04-15T01:26:36;7.70;;;4.55;;
65757;SDS011;52495;52.208;5.158;2023-04-15T01:29:06;7.22;;;4.45;;
65757;SDS011;52495;52.208;5.158;2023-04-15T01:31:32;10.55;;;5.55;;
65757;SDS011;52495;52.208;5.158;2023-04-15T01:34:00;9.82;;;5.68;;
65757;SDS011;52495;52.208;5.158;2023-04-15T01:36:27;12.02;;;5.45;;
65757;SDS011;52495;52.208;5.158;2023-04-15T01:38:54;9.98;;;5.70;;
65757;SDS011;52495;52.208;5.158;2023-04-15T01:41:24;11.35;;;5.60;;
65757;SDS011;52495;52.208;5.158;2023-04-15T01:43:52;11.45;;;6.38;;
65757;SDS011;52495;52.208;5.158;2023-04-15T01:46:20;6.35;;;4.78;;
65757;SDS011;52495;52.208;5.158;2023-04-15T01:48:46;9.88;;;5.55;;
65757;SDS011;52495;52.208;5.158;2023-04-15T01:51:13;10.40;;;6.20;;
65757;SDS011;52495;52.208;5.158;2023-04-15T01:53:40;11.30;;;6.22;;
65757;SDS011;52495;52.208;5.158;2023-04-15T01:56:07;8.23;;;5.80;;
65757;SDS011;52495;52.208;5.158;2023-04-15T01:58:34;10.63;;;5.97;;
65757;SDS011;52495;52.208;5.158;2023-04-15T02:01:02;10.18;;;6.03;;
65757;SDS011;52495;52.208;5.158;2023-04-15T02:03:30;9.80;;;5.85;;
65757;SDS011;52495;52.208;5.158;2023-04-15T02:05:57;8.98;;;5.70;;
65757;SDS011;52495;52.208;5.158;2023-04-15T02:08:23;9.98;;;6.22;;
65757;SDS011;52495;52.208;5.158;2023-04-15T02:10:51;8.75;;;5.75;;
65757;SDS011;52495;52.208;5.158;2023-04-15T02:13:17;8.18;;;5.50;;
65757;SDS011;52495;52.208;5.158;2023-04-15T02:15:47;9.30;;;5.65;;
65757;SDS011;52495;52.208;5.158;2023-04-15T02:18:18;9.48;;;5.50;;
65757;SDS011;52495;52.208;5.158;2023-04-15T02:20:45;10.60;;;5.53;;
65757;SDS011;52495;52.208;5.158;2023-04-15T02:23:13;14.65;;;6.35;;
65757;SDS011;52495;52.208;5.158;2023-04-15T02:25:42;10.50;;;5.88;;
65757;SDS011;52495;52.208;5.158;2023-04-15T02:28:09;8.55;;;4.60;;
65757;SDS011;52495;52.208;5.158;2023-04-15T02:30:36;9.90;;;5.03;;
65757;SDS011;52495;52.208;5.158;2023-04-15T02:33:02;10.13;;;5.18;;
65757;SDS011;52495;52.208;5.158;2023-04-15T02:35:31;7.30;;;4.68;;
65757;SDS011;52495;52.208;5.158;2023-04-15T02:37:58;8.60;;;5.30;;
65757;SDS011;52495;52.208;5.158;2023-04-15T02:40:25;9.93;;;5.88;;
65757;SDS011;52495;52.208;5.158;2023-04-15T02:42:52;9.93;;;5.50;;
65757;SDS011;52495;52.208;5.158;2023-04-15T02:45:19;9.95;;;5.88;;
65757;SDS011;52495;52.208;5.158;2023-04-15T02:47:48;8.20;;;5.28;;
65757;SDS011;52495;52.208;5.158;2023-04-15T02:50:15;9.18;;;5.40;;
65757;SDS011;52495;52.208;5.158;2023-04-15T02:52:43;10.48;;;5.47;;
65757;SDS011;52495;52.208;5.158;2023-04-15T02:55:10;9.18;;;5.40;;
65757;SDS011;52495;52.208;5.158;2023-04-15T02:57:37;9.52;;;5.95;;
65757;SDS011;52495;52.208;5.158;2023-04-15T03:00:07;7.60;;;5.50;;
65757;SDS011;52495;52.208;5.158;2023-04-15T03:02:39;9.68;;;5.95;;
65757;SDS011;52495;52.208;5.158;2023-04-15T03:05:10;8.68;;;5.20;;
65757;SDS011;52495;52.208;5.158;2023-04-15T03:07:38;11.30;;;5.40;;
65757;SDS011;52495;52.208;5.158;2023-04-15T03:10:07;9.10;;;5.45;;
65757;SDS011;52495;52.208;5.158;2023-04-15T03:12:35;8.55;;;5.82;;
65757;SDS011;52495;52.208;5.158;2023-04-15T03:15:02;10.73;;;5.53;;
65757;SDS011;52495;52.208;5.158;2023-04-15T03:17:35;10.65;;;6.00;;
65757;SDS011;52495;52.208;5.158;2023-04-15T03:20:03;10.18;;;5.90;;
65757;SDS011;52495;52.208;5.158;2023-04-15T03:22:31;9.50;;;6.03;;
65757;SDS011;52495;52.208;5.158;2023-04-15T03:24:58;8.27;;;5.00;;
65757;SDS011;52495;52.208;5.158;2023-04-15T03:27:27;8.55;;;4.93;;
65757;SDS011;52495;52.208;5.158;2023-04-15T03:29:58;9.68;;;5.80;;
65757;SDS011;52495;52.208;5.158;2023-04-15T03:32:26;10.18;;;6.03;;
65757;SDS011;52495;52.208;5.158;2023-04-15T03:34:53;11.45;;;6.35;;
65757;SDS011;52495;52.208;5.158;2023-04-15T03:37:19;8.45;;;6.13;;
65757;SDS011;52495;52.208;5.158;2023-04-15T03:39:46;9.27;;;6.40;;
65757;SDS011;52495;52.208;5.158;2023-04-15T03:42:13;12.48;;;6.47;;
65757;SDS011;52495;52.208;5.158;2023-04-15T03:44:41;9.13;;;6.10;;
65757;SDS011;52495;52.208;5.158;2023-04-15T03:47:07;13.95;;;6.97;;
65757;SDS011;52495;52.208;5.158;2023-04-15T03:49:34;10.15;;;5.55;;
65757;SDS011;52495;52.208;5.158;2023-04-15T03:52:01;9.75;;;5.35;;
65757;SDS011;52495;52.208;5.158;2023-04-15T03:54:28;8.57;;;5.38;;
65757;SDS011;52495;52.208;5.158;2023-04-15T03:56:55;10.18;;;6.63;;
65757;SDS011;52495;52.208;5.158;2023-04-15T03:59:22;9.95;;;5.80;;
65757;SDS011;52495;52.208;5.158;2023-04-15T04:01:50;11.50;;;5.93;;
65757;SDS011;52495;52.208;5.158;2023-04-15T04:04:17;7.78;;;5.80;;
65757;SDS011;52495;52.208;5.158;2023-04-15T04:06:43;8.98;;;5.53;;
65757;SDS011;52495;52.208;5.158;2023-04-15T04:09:10;8.73;;;5.05;;
65757;SDS011;52495;52.208;5.158;2023-04-15T04:11:37;12.05;;;7.10;;
65757;SDS011;52495;52.208;5.158;2023-04-15T04:14:04;10.35;;;6.85;;
65757;SDS011;52495;52.208;5.158;2023-04-15T04:16:30;11.50;;;6.78;;
65757;SDS011;52495;52.208;5.158;2023-04-15T04:18:59;8.93;;;6.07;;
65757;SDS011;52495;52.208;5.158;2023-04-15T04:21:25;12.38;;;7.05;;
65757;SDS011;52495;52.208;5.158;2023-04-15T04:23:52;12.45;;;6.82;;
65757;SDS011;52495;52.208;5.158;2023-04-15T04:26:20;9.73;;;6.13;;
65757;SDS011;52495;52.208;5.158;2023-04-15T04:28:47;12.93;;;7.13;;
65757;SDS011;52495;52.208;5.158;2023-04-15T04:31:14;9.65;;;7.00;;
65757;SDS011;52495;52.208;5.158;2023-04-15T04:33:41;10.40;;;6.30;;
65757;SDS011;52495;52.208;5.158;2023-04-15T04:36:09;11.27;;;6.90;;
65757;SDS011;52495;52.208;5.158;2023-04-15T04:38:36;10.98;;;7.20;;
65757;SDS011;52495;52.208;5.158;2023-04-15T04:41:03;12.10;;;6.90;;
65757;SDS011;52495;52.208;5.158;2023-04-15T04:43:30;11.93;;;7.45;;
65757;SDS011;52495;52.208;5.158;2023-04-15T04:45:56;10.77;;;7.10;;
65757;SDS011;52495;52.208;5.158;2023-04-15T04:48:23;10.38;;;7.00;;
65757;SDS011;52495;52.208;5.158;2023-04-15T04:50:50;9.80;;;6.60;;
65757;SDS011;52495;52.208;5.158;2023-04-15T04:53:19;13.05;;;7.57;;
65757;SDS011;52495;52.208;5.158;2023-04-15T04:55:46;10.80;;;6.97;;
65757;SDS011;52495;52.208;5.158;2023-04-15T04:58:12;10.23;;;6.85;;
65757;SDS011;52495;52.208;5.158;2023-04-15T05:00:40;11.50;;;6.38;;
65757;SDS011;52495;52.208;5.158;2023-04-15T05:03:07;9.98;;;6.78;;
65757;SDS011;52495;52.208;5.158;2023-04-15T05:05:33;9.98;;;6.35;;
65757;SDS011;52495;52.208;5.158;2023-04-15T05:08:01;13.15;;;7.53;;
65757;SDS011;52495;52.208;5.158;2023-04-15T05:10:29;10.48;;;6.88;;
65757;SDS011;52495;52.208;5.158;2023-04-15T05:12:56;10.15;;;6.40;;
65757;SDS011;52495;52.208;5.158;2023-04-15T05:15:22;10.25;;;6.32;;
65757;SDS011;52495;52.208;5.158;2023-04-15T05:17:49;9.88;;;6.18;;
65757;SDS011;52495;52.208;5.158;2023-04-15T05:20:16;12.05;;;7.57;;
65757;SDS011;52495;52.208;5.158;2023-04-15T05:22:43;12.40;;;8.13;;
65757;SDS011;52495;52.208;5.158;2023-04-15T05:25:10;11.98;;;6.47;;
65757;SDS011;52495;52.208;5.158;2023-04-15T05:27:38;11.00;;;6.72;;
65757;SDS011;52495;52.208;5.158;2023-04-15T05:30:05;11.68;;;7.30;;
65757;SDS011;52495;52.208;5.158;2023-04-15T05:32:33;10.18;;;7.80;;
65757;SDS011;52495;52.208;5.158;2023-04-15T05:35:00;10.93;;;6.60;;
65757;SDS011;52495;52.208;5.158;2023-04-15T05:37:27;8.27;;;6.80;;
65757;SDS011;52495;52.208;5.158;2023-04-15T05:39:54;11.88;;;7.10;;
65757;SDS011;52495;52.208;5.158;2023-04-15T05:42:20;10.15;;;6.85;;
65757;SDS011;52495;52.208;5.158;2023-04-15T05:44:49;10.70;;;7.47;;
65757;SDS011;52495;52.208;5.158;2023-04-15T05:47:16;12.32;;;6.95;;
65757;SDS011;52495;52.208;5.158;2023-04-15T05:49:42;9.65;;;7.32;;
65757;SDS011;52495;52.208;5.158;2023-04-15T05:52:09;14.90;;;8.05;;
65757;SDS011;52495;52.208;5.158;2023-04-15T05:54:36;12.02;;;8.35;;
65757;SDS011;52495;52.208;5.158;2023-04-15T05:57:03;10.20;;;7.03;;
65757;SDS011;52495;52.208;5.158;2023-04-15T05:59:30;13.70;;;8.65;;
65757;SDS011;52495;52.208;5.158;2023-04-15T06:01:58;13.48;;;9.38;;
65757;SDS011;52495;52.208;5.158;2023-04-15T06:04:25;11.63;;;7.80;;
65757;SDS011;52495;52.208;5.158;2023-04-15T06:06:52;12.63;;;8.63;;
65757;SDS011;52495;52.208;5.158;2023-04-15T06:09:19;10.40;;;8.02;;
65757;SDS011;52495;52.208;5.158;2023-04-15T06:11:45;12.05;;;8.32;;
65757;SDS011;52495;52.208;5.158;2023-04-15T06:14:12;10.07;;;7.07;;
65757;SDS011;52495;52.208;5.158;2023-04-15T06:16:39;12.10;;;8.00;;
65757;SDS011;52495;52.208;5.158;2023-04-15T06:19:07;9.68;;;7.55;;
65757;SDS011;52495;52.208;5.158;2023-04-15T06:21:34;10.68;;;7.55;;
65757;SDS011;52495;52.208;5.158;2023-04-15T06:24:02;8.70;;;6.75;;
65757;SDS011;52495;52.208;5.158;2023-04-15T06:26:29;12.55;;;8.73;;
65757;SDS011;52495;52.208;5.158;2023-04-15T06:28:55;14.60;;;9.23;;
65757;SDS011;52495;52.208;5.158;2023-04-15T06:31:22;14.65;;;8.45;;
65757;SDS011;52495;52.208;5.158;2023-04-15T06:33:49;9.82;;;7.03;;
65757;SDS011;52495;52.208;5.158;2023-04-15T06:36:17;12.13;;;8.27;;
65757;SDS011;52495;52.208;5.158;2023-04-15T06:38:44;14.52;;;9.00;;
65757;SDS011;52495;52.208;5.158;2023-04-15T06:41:11;11.05;;;8.02;;
65757;SDS011;52495;52.208;5.158;2023-04-15T06:43:38;12.13;;;8.32;;
65757;SDS011;52495;52.208;5.158;2023-04-15T06:46:05;14.70;;;9.07;;
65757;SDS011;52495;52.208;5.158;2023-04-15T06:48:32;12.77;;;9.77;;
65757;SDS011;52495;52.208;5.158;2023-04-15T06:50:58;10.13;;;8.43;;
65757;SDS011;52495;52.208;5.158;2023-04-15T06:53:26;12.23;;;8.13;;
65757;SDS011;52495;52.208;5.158;2023-04-15T06:55:54;13.13;;;9.10;;
65757;SDS011;52495;52.208;5.158;2023-04-15T06:58:21;11.60;;;9.20;;
65757;SDS011;52495;52.208;5.158;2023-04-15T07:00:47;11.80;;;8.93;;
65757;SDS011;52495;52.208;5.158;2023-04-15T07:03:15;13.27;;;9.32;;
65757;SDS011;52495;52.208;5.158;2023-04-15T07:05:42;13.73;;;9.05;;
65757;SDS011;52495;52.208;5.158;2023-04-15T07:08:09;11.23;;;8.15;;
65757;SDS011;52495;52.208;5.158;2023-04-15T07:10:37;12.38;;;9.00;;
65757;SDS011;52495;52.208;5.158;2023-04-15T07:13:04;14.68;;;9.75;;
65757;SDS011;52495;52.208;5.158;2023-04-15T07:15:33;15.55;;;9.48;;
65757;SDS011;52495;52.208;5.158;2023-04-15T07:18:00;12.77;;;8.68;;
65757;SDS011;52495;52.208;5.158;2023-04-15T07:20:26;11.15;;;8.75;;
65757;SDS011;52495;52.208;5.158;2023-04-15T07:22:53;11.90;;;7.25;;
65757;SDS011;52495;52.208;5.158;2023-04-15T07:25:20;11.98;;;8.85;;
65757;SDS011;52495;52.208;5.158;2023-04-15T07:27:48;13.18;;;7.90;;
65757;SDS011;52495;52.208;5.158;2023-04-15T07:30:15;10.77;;;7.38;;
65757;SDS011;52495;52.208;5.158;2023-04-15T07:32:42;9.88;;;7.90;;
65757;SDS011;52495;52.208;5.158;2023-04-15T07:35:09;11.95;;;8.23;;
65757;SDS011;52495;52.208;5.158;2023-04-15T07:37:36;12.00;;;7.85;;
65757;SDS011;52495;52.208;5.158;2023-04-15T07:40:02;11.38;;;7.78;;
65757;SDS011;52495;52.208;5.158;2023-04-15T07:42:31;14.63;;;8.10;;
65757;SDS011;52495;52.208;5.158;2023-04-15T07:45:00;10.45;;;6.65;;
65757;SDS011;52495;52.208;5.158;2023-04-15T07:47:27;9.55;;;7.18;;
65757;SDS011;52495;52.208;5.158;2023-04-15T07:49:54;11.38;;;7.47;;
65757;SDS011;52495;52.208;5.158;2023-04-15T07:52:20;11.18;;;6.90;;
65757;SDS011;52495;52.208;5.158;2023-04-15T07:54:47;8.02;;;5.20;;
65757;SDS011;52495;52.208;5.158;2023-04-15T07:57:14;8.55;;;6.07;;
65757;SDS011;52495;52.208;5.158;2023-04-15T07:59:41;7.97;;;6.43;;
65757;SDS011;52495;52.208;5.158;2023-04-15T08:02:09;10.02;;;6.45;;
65757;SDS011;52495;52.208;5.158;2023-04-15T08:04:37;9.60;;;6.70;;
65757;SDS011;52495;52.208;5.158;2023-04-15T08:07:03;8.57;;;5.68;;
65757;SDS011;52495;52.208;5.158;2023-04-15T08:09:32;7.47;;;4.90;;
65757;SDS011;52495;52.208;5.158;2023-04-15T08:11:58;7.88;;;5.70;;
65757;SDS011;52495;52.208;5.158;2023-04-15T08:14:25;13.52;;;7.70;;
65757;SDS011;52495;52.208;5.158;2023-04-15T08:16:52;10.85;;;6.90;;
65757;SDS011;52495;52.208;5.158;2023-04-15T08:19:21;10.07;;;6.32;;
65757;SDS011;52495;52.208;5.158;2023-04-15T08:21:48;11.57;;;5.55;;
65757;SDS011;52495;52.208;5.158;2023-04-15T08:24:15;8.25;;;6.18;;
65757;SDS011;52495;52.208;5.158;2023-04-15T08:26:42;11.57;;;6.32;;
65757;SDS011;52495;52.208;5.158;2023-04-15T08:29:08;11.25;;;7.03;;
65757;SDS011;52495;52.208;5.158;2023-04-15T08:31:35;12.57;;;5.60;;
65757;SDS011;52495;52.208;5.158;2023-04-15T08:34:02;11.23;;;6.28;;
65757;SDS011;52495;52.208;5.158;2023-04-15T08:36:31;9.05;;;5.72;;
65757;SDS011;52495;52.208;5.158;2023-04-15T08:38:57;10.50;;;5.93;;
65757;SDS011;52495;52.208;5.158;2023-04-15T08:41:25;7.55;;;5.20;;
65757;SDS011;52495;52.208;5.158;2023-04-15T08:43:56;6.75;;;4.65;;
65757;SDS011;52495;52.208;5.158;2023-04-15T08:46:24;7.78;;;4.65;;
65757;SDS011;52495;52.208;5.158;2023-04-15T08:48:51;7.40;;;5.03;;
65757;SDS011;52495;52.208;5.158;2023-04-15T08:51:22;7.80;;;5.13;;
65757;SDS011;52495;52.208;5.158;2023-04-15T08:53:52;6.03;;;4.28;;
65757;SDS011;52495;52.208;5.158;2023-04-15T08:56:20;8.70;;;4.38;;
65757;SDS011;52495;52.208;5.158;2023-04-15T08:58:50;6.22;;;3.85;;
65757;SDS011;52495;52.208;5.158;2023-04-15T09:01:17;5.40;;;3.10;;
65757;SDS011;52495;52.208;5.158;2023-04-15T09:03:44;6.55;;;3.85;;
65757;SDS011;52495;52.208;5.158;2023-04-15T09:06:14;6.95;;;4.07;;
65757;SDS011;52495;52.208;5.158;2023-04-15T09:08:42;6.05;;;3.40;;
65757;SDS011;52495;52.208;5.158;2023-04-15T09:11:10;7.32;;;3.92;;
65757;SDS011;52495;52.208;5.158;2023-04-15T09:13:37;8.43;;;4.43;;
65757;SDS011;52495;52.208;5.158;2023-04-15T09:16:04;9.30;;;4.13;;
65757;SDS011;52495;52.208;5.158;2023-04-15T09:18:34;9.63;;;4.97;;
65757;SDS011;52495;52.208;5.158;2023-04-15T09:21:05;8.73;;;3.95;;
65757;SDS011;52495;52.208;5.158;2023-04-15T09:23:33;9.98;;;5.03;;
65757;SDS011;52495;52.208;5.158;2023-04-15T09:26:01;7.10;;;3.75;;
65757;SDS011;52495;52.208;5.158;2023-04-15T09:28:29;7.63;;;4.00;;
65757;SDS011;52495;52.208;5.158;2023-04-15T09:30:56;8.30;;;4.05;;
65757;SDS011;52495;52.208;5.158;2023-04-15T09:33:23;7.63;;;3.55;;
65757;SDS011;52495;52.208;5.158;2023-04-15T09:35:58;6.15;;;3.58;;
65757;SDS011;52495;52.208;5.158;2023-04-15T09:38:26;4.47;;;2.20;;
65757;SDS011;52495;52.208;5.158;2023-04-15T09:40:56;4.20;;;2.13;;
65757;SDS011;52495;52.208;5.158;2023-04-15T09:43:35;4.65;;;2.45;;
65757;SDS011;52495;52.208;5.158;2023-04-15T09:46:03;3.35;;;2.10;;
65757;SDS011;52495;52.208;5.158;2023-04-15T09:48:31;4.00;;;2.33;;
65757;SDS011;52495;52.208;5.158;2023-04-15T09:50:58;5.82;;;2.25;;
65757;SDS011;52495;52.208;5.158;2023-04-15T09:53:25;3.92;;;2.50;;
65757;SDS011;52495;52.208;5.158;2023-04-15T09:55:57;3.45;;;2.35;;
65757;SDS011;52495;52.208;5.158;2023-04-15T09:58:25;3.60;;;2.38;;
65757;SDS011;52495;52.208;5.158;2023-04-15T10:00:55;3.78;;;2.08;;
65757;SDS011;52495;52.208;5.158;2023-04-15T10:03:23;3.72;;;2.25;;
65757;SDS011;52495;52.208;5.158;2023-04-15T10:05:53;4.20;;;2.47;;
65757;SDS011;52495;52.208;5.158;2023-04-15T10:08:22;4.15;;;2.63;;
65757;SDS011;52495;52.208;5.158;2023-04-15T10:10:50;6.82;;;3.20;;
65757;SDS011;52495;52.208;5.158;2023-04-15T10:13:18;4.43;;;2.88;;
65757;SDS011;52495;52.208;5.158;2023-04-15T10:15:48;5.25;;;3.47;;
65757;SDS011;52495;52.208;5.158;2023-04-15T10:18:19;4.70;;;3.47;;
65757;SDS011;52495;52.208;5.158;2023-04-15T10:20:49;4.25;;;3.08;;
65757;SDS011;52495;52.208;5.158;2023-04-15T10:23:16;5.93;;;3.42;;
65757;SDS011;52495;52.208;5.158;2023-04-15T10:25:45;7.30;;;3.70;;
65757;SDS011;52495;52.208;5.158;2023-04-15T10:28:12;8.93;;;4.20;;
65757;SDS011;52495;52.208;5.158;2023-04-15T10:30:41;8.05;;;3.75;;
65757;SDS011;52495;52.208;5.158;2023-04-15T10:33:09;7.18;;;3.83;;
65757;SDS011;52495;52.208;5.158;2023-04-15T10:35:38;6.07;;;3.92;;
65757;SDS011;52495;52.208;5.158;2023-04-15T10:41:04;5.13;;;3.63;;
65757;SDS011;52495;52.208;5.158;2023-04-15T10:43:38;7.85;;;4.38;;
65757;SDS011;52495;52.208;5.158;2023-04-15T10:46:05;5.78;;;4.00;;
65757;SDS011;52495;52.208;5.158;2023-04-15T10:48:32;7.55;;;3.60;;
65757;SDS011;52495;52.208;5.158;2023-04-15T10:51:00;6.85;;;4.03;;
65757;SDS011;52495;52.208;5.158;2023-04-15T10:53:27;11.55;;;4.68;;
65757;SDS011;52495;52.208;5.158;2023-04-15T10:55:55;6.78;;;4.00;;
65757;SDS011;52495;52.208;5.158;2023-04-15T10:58:24;6.18;;;3.28;;
65757;SDS011;52495;52.208;5.158;2023-04-15T11:00:52;6.00;;;3.90;;
65757;SDS011;52495;52.208;5.158;2023-04-15T11:03:33;8.57;;;4.60;;
65757;SDS011;52495;52.208;5.158;2023-04-15T11:06:04;5.95;;;4.00;;
65757;SDS011;52495;52.208;5.158;2023-04-15T11:11:23;7.38;;;3.97;;
65757;SDS011;52495;52.208;5.158;2023-04-15T11:14:28;7.38;;;4.22;;
65757;SDS011;52495;52.208;5.158;2023-04-15T11:16:55;6.28;;;4.28;;
65757;SDS011;52495;52.208;5.158;2023-04-15T11:19:23;6.32;;;3.85;;
65757;SDS011;52495;52.208;5.158;2023-04-15T11:21:51;5.40;;;4.00;;
65757;SDS011;52495;52.208;5.158;2023-04-15T11:24:22;8.00;;;3.22;;
65757;SDS011;52495;52.208;5.158;2023-04-15T11:26:56;5.70;;;3.10;;
65757;SDS011;52495;52.208;5.158;2023-04-15T11:29:27;5.82;;;2.95;;
65757;SDS011;52495;52.208;5.158;2023-04-15T11:32:03;3.28;;;2.38;;
65757;SDS011;52495;52.208;5.158;2023-04-15T11:34:31;4.40;;;2.25;;
65757;SDS011;52495;52.208;5.158;2023-04-15T11:37:01;2.65;;;1.92;;
65757;SDS011;52495;52.208;5.158;2023-04-15T11:39:29;3.72;;;1.80;;
65757;SDS011;52495;52.208;5.158;2023-04-15T11:41:56;4.78;;;2.47;;
65757;SDS011;52495;52.208;5.158;2023-04-15T11:44:23;2.35;;;2.03;;
65757;SDS011;52495;52.208;5.158;2023-04-15T11:46:50;6.53;;;3.15;;
65757;SDS011;52495;52.208;5.158;2023-04-15T11:49:26;5.68;;;2.33;;
65757;SDS011;52495;52.208;5.158;2023-04-15T11:51:54;4.85;;;2.38;;
65757;SDS011;52495;52.208;5.158;2023-04-15T11:54:22;9.65;;;2.78;;
65757;SDS011;52495;52.208;5.158;2023-04-15T11:56:49;4.70;;;2.20;;
65757;SDS011;52495;52.208;5.158;2023-04-15T11:59:17;6.75;;;2.47;;
65757;SDS011;52495;52.208;5.158;2023-04-15T12:01:43;7.10;;;2.67;;
65757;SDS011;52495;52.208;5.158;2023-04-15T12:04:12;4.78;;;2.70;;
65757;SDS011;52495;52.208;5.158;2023-04-15T12:06:43;5.63;;;2.85;;
65757;SDS011;52495;52.208;5.158;2023-04-15T12:09:10;4.70;;;2.53;;
65757;SDS011;52495;52.208;5.158;2023-04-15T12:11:40;5.72;;;3.00;;
65757;SDS011;52495;52.208;5.158;2023-04-15T12:14:10;3.10;;;2.10;;
65757;SDS011;52495;52.208;5.158;2023-04-15T12:16:39;5.28;;;2.85;;
65757;SDS011;52495;52.208;5.158;2023-04-15T12:19:08;5.35;;;2.45;;
65757;SDS011;52495;52.208;5.158;2023-04-15T12:21:44;6.25;;;2.63;;
65757;SDS011;52495;52.208;5.158;2023-04-15T12:24:13;2.97;;;2.33;;
65757;SDS011;52495;52.208;5.158;2023-04-15T12:26:44;4.38;;;2.90;;
65757;SDS011;52495;52.208;5.158;2023-04-15T12:29:14;4.07;;;2.70;;
65757;SDS011;52495;52.208;5.158;2023-04-15T12:31:45;4.03;;;2.63;;
65757;SDS011;52495;52.208;5.158;2023-04-15T12:34:17;5.47;;;2.20;;
65757;SDS011;52495;52.208;5.158;2023-04-15T12:36:50;4.20;;;2.20;;
65757;SDS011;52495;52.208;5.158;2023-04-15T12:39:20;6.20;;;2.28;;
65757;SDS011;52495;52.208;5.158;2023-04-15T12:41:49;3.47;;;2.47;;
65757;SDS011;52495;52.208;5.158;2023-04-15T12:44:15;3.90;;;2.33;;
65757;SDS011;52495;52.208;5.158;2023-04-15T12:46:42;6.20;;;2.92;;
65757;SDS011;52495;52.208;5.158;2023-04-15T12:49:10;8.13;;;2.83;;
65757;SDS011;52495;52.208;5.158;2023-04-15T12:51:38;7.32;;;3.47;;
65757;SDS011;52495;52.208;5.158;2023-04-15T12:54:05;4.18;;;2.33;;
65757;SDS011;52495;52.208;5.158;2023-04-15T12:56:32;4.00;;;2.22;;
65757;SDS011;52495;52.208;5.158;2023-04-15T12:59:00;4.57;;;2.40;;
65757;SDS011;52495;52.208;5.158;2023-04-15T13:01:27;3.50;;;2.30;;
65757;SDS011;52495;52.208;5.158;2023-04-15T13:03:54;5.47;;;2.63;;
65757;SDS011;52495;52.208;5.158;2023-04-15T13:06:21;5.10;;;2.38;;
65757;SDS011;52495;52.208;5.158;2023-04-15T13:08:48;5.15;;;2.25;;
65757;SDS011;52495;52.208;5.158;2023-04-15T13:11:15;4.32;;;2.00;;
65757;SDS011;52495;52.208;5.158;2023-04-15T13:13:42;4.07;;;2.28;;
65757;SDS011;52495;52.208;5.158;2023-04-15T13:16:11;4.28;;;2.00;;
65757;SDS011;52495;52.208;5.158;2023-04-15T13:18:38;5.45;;;2.05;;
65757;SDS011;52495;52.208;5.158;2023-04-15T13:21:04;4.18;;;2.08;;
65757;SDS011;52495;52.208;5.158;2023-04-15T13:23:31;3.50;;;2.03;;
65757;SDS011;52495;52.208;5.158;2023-04-15T13:25:58;2.35;;;1.50;;
65757;SDS011;52495;52.208;5.158;2023-04-15T13:28:25;4.35;;;1.33;;
65757;SDS011;52495;52.208;5.158;2023-04-15T13:30:51;2.88;;;1.60;;
65757;SDS011;52495;52.208;5.158;2023-04-15T13:33:20;4.78;;;1.67;;
65757;SDS011;52495;52.208;5.158;2023-04-15T13:35:46;1.88;;;0.95;;
65757;SDS011;52495;52.208;5.158;2023-04-15T13:38:13;3.55;;;1.45;;
65757;SDS011;52495;52.208;5.158;2023-04-15T13:40:40;4.28;;;1.45;;
65757;SDS011;52495;52.208;5.158;2023-04-15T13:43:07;3.50;;;1.58;;
65757;SDS011;52495;52.208;5.158;2023-04-15T13:45:34;3.90;;;1.33;;
65757;SDS011;52495;52.208;5.158;2023-04-15T13:48:01;3.92;;;1.40;;
65757;SDS011;52495;52.208;5.158;2023-04-15T13:50:29;4.88;;;1.60;;
65757;SDS011;52495;52.208;5.158;2023-04-15T13:52:55;3.28;;;1.00;;
65757;SDS011;52495;52.208;5.158;2023-04-15T13:55:22;3.92;;;1.73;;
65757;SDS011;52495;52.208;5.158;2023-04-15T13:57:49;2.05;;;1.27;;
65757;SDS011;52495;52.208;5.158;2023-04-15T14:00:16;4.72;;;1.70;;
65757;SDS011;52495;52.208;5.158;2023-04-15T14:02:43;5.13;;;1.25;;
65757;SDS011;52495;52.208;5.158;2023-04-15T14:05:10;3.38;;;1.00;;
65757;SDS011;52495;52.208;5.158;2023-04-15T14:07:38;3.35;;;1.63;;
65757;SDS011;52495;52.208;5.158;2023-04-15T14:10:05;3.50;;;1.33;;
65757;SDS011;52495;52.208;5.158;2023-04-15T14:12:33;3.75;;;1.27;;
65757;SDS011;52495;52.208;5.158;2023-04-15T14:15:00;6.47;;;1.60;;
65757;SDS011;52495;52.208;5.158;2023-04-15T14:17:27;2.22;;;1.40;;
65757;SDS011;52495;52.208;5.158;2023-04-15T14:19:54;2.67;;;1.17;;
65757;SDS011;52495;52.208;5.158;2023-04-15T14:22:20;4.47;;;1.55;;
65757;SDS011;52495;52.208;5.158;2023-04-15T14:24:49;4.18;;;1.42;;
65757;SDS011;52495;52.208;5.158;2023-04-15T14:27:18;4.97;;;1.30;;
65757;SDS011;52495;52.208;5.158;2023-04-15T14:29:44;4.78;;;1.40;;
65757;SDS011;52495;52.208;5.158;2023-04-15T14:32:11;4.45;;;1.80;;
65757;SDS011;52495;52.208;5.158;2023-04-15T14:34:38;6.07;;;1.70;;
65757;SDS011;52495;52.208;5.158;2023-04-15T14:37:05;3.20;;;1.30;;
65757;SDS011;52495;52.208;5.158;2023-04-15T14:39:31;5.20;;;1.60;;
65757;SDS011;52495;52.208;5.158;2023-04-15T14:42:00;2.47;;;1.25;;
65757;SDS011;52495;52.208;5.158;2023-04-15T14:44:26;5.72;;;1.42;;
65757;SDS011;52495;52.208;5.158;2023-04-15T14:46:54;7.15;;;2.33;;
65757;SDS011;52495;52.208;5.158;2023-04-15T14:49:21;3.17;;;1.42;;
65757;SDS011;52495;52.208;5.158;2023-04-15T14:51:48;3.47;;;2.10;;